• Join FlightAware (Why Join?)
  • Login
  • US Flag 
04:57AM EDT


 

Airport Tracker/Info


-or-


 

Live Flight TrackerFlight Track Log ✈ N2827N ✈ 03-Feb-2014 ✈ KPIE - KTLH

Flight Track Log - Related Links

Times and Time Zones

All times are in EST time to prevent confusion due to time zone crossing. See the N2827N flight status page for this flight to view local times or setup timezone preferences in your user account.

Time Position Orientation Groundspeed Altitude Reporting Facility
EST Latitude Longitude Course Direction KTS MPH feet Rate Location/Type
07:10AM 27.9667 -82.7000 319° Northwest 128 147 1,400  Level Tampa TRACON
07:11AM 27.9833 -82.7167 319° Northwest 130 150 1,800 660 Climbing Tampa TRACON
07:12AM 28.0167 -82.7333 336° Northwest 132 152 2,500 660 Climbing Tampa TRACON
07:13AM 28.0500 -82.7500 336° Northwest 133 153 3,200 720 Climbing Tampa TRACON
07:14AM 28.0833 -82.7833 319° Northwest 131 151 3,900 720 Climbing Tampa TRACON
07:15AM 28.1000 -82.8000 319° Northwest 133 153 4,600 660 Climbing Tampa TRACON
07:16AM 28.1333 -82.8167 336° Northwest 139 160 5,200 540 Climbing Tampa TRACON
07:18AM 28.2042 -82.8714 326° Northwest 128 147 6,300 600 Climbing Jacksonville Center
07:19AM 28.2397 -82.8950 330° Northwest 134 154 7,100 780 Climbing Jacksonville Center
07:20AM 28.2731 -82.9161 331° Northwest 139 160 7,900 420 Climbing Jacksonville Center
07:21AM 28.3086 -82.9397 330° Northwest 149 171 8,000  Climbing Jacksonville Center
07:22AM 28.3481 -82.9608 335° Northwest 155 178 7,900 -60 Descending Jacksonville Center
07:23AM 28.3900 -82.9847 333° Northwest 160 184 7,900  Level Jacksonville Center
07:24AM 28.4294 -83.0058 335° Northwest 165 190 7,900  Level Jacksonville Center
07:25AM 28.4692 -83.0319 330° Northwest 165 190 7,900  Level Jacksonville Center
07:26AM 28.5108 -83.0556 334° Northwest 165 190 8,000  Climbing Jacksonville Center
07:27AM 28.5483 -83.0839 326° Northwest 165 190 7,900 -60 Descending Jacksonville Center
07:28AM 28.5900 -83.1100 331° Northwest 165 190 7,900  Level Jacksonville Center
07:29AM 28.6275 -83.1408 324° Northwest 165 190 7,900  Level Jacksonville Center
07:30AM 28.6672 -83.1647 332° Northwest 165 190 8,000  Climbing Jacksonville Center
07:31AM 28.7089 -83.1931 329° Northwest 165 190 8,000 -60 Level Jacksonville Center
07:32AM 28.7483 -83.2194 330° Northwest 165 190 7,900  Descending Jacksonville Center
07:33AM 28.7881 -83.2456 330° Northwest 165 190 8,000  Climbing Jacksonville Center
07:34AM 28.8275 -83.2742 328° Northwest 165 190 8,000  Level Jacksonville Center
07:35AM 28.8672 -83.3003 330° Northwest 165 190 8,000 -60 Level Jacksonville Center
07:36AM 28.9067 -83.3314 325° Northwest 165 190 7,900 -60 Descending Jacksonville Center
07:37AM 28.9464 -83.3553 332° Northwest 165 190 7,900  Level Jacksonville Center
07:38AM 28.9817 -83.3864 322° Northwest 165 190 7,900  Level Jacksonville Center
07:39AM 29.0211 -83.4150 328° Northwest 165 190 8,000  Climbing Jacksonville Center
07:40AM 29.0544 -83.4389 328° Northwest 165 190 7,900 -60 Descending Jacksonville Center
07:41AM 29.0942 -83.4628 332° Northwest 165 190 7,900  Level Jacksonville Center
07:42AM 29.1317 -83.4844 333° Northwest 160 184 7,900  Level Jacksonville Center
07:43AM 29.1669 -83.5086 329° Northwest 160 184 7,900  Level Jacksonville Center
07:44AM 29.2022 -83.5300 332° Northwest 160 184 8,000 -300 Climbing Jacksonville Center
07:45AM 29.2397 -83.5589 326° Northwest 155 178 7,400 -600 Descending Jacksonville Center
07:46AM 29.2814 -83.5831 333° Northwest 160 184 6,900 -480 Descending Jacksonville Center
07:47AM 29.3208 -83.6142 325° Northwest 170 196 6,500 -360 Descending Jacksonville Center
07:48AM 29.3625 -83.6408 331° Northwest 170 196 6,200 -300 Descending Jacksonville Center
07:49AM 29.4019 -83.6672 330° Northwest 164 189 5,900 -180 Descending Jacksonville Center
07:50AM 29.4414 -83.6914 332° Northwest 164 189 5,900  Level Jacksonville Center
07:51AM 29.4789 -83.7156 331° Northwest 164 189 5,900  Level Jacksonville Center
07:52AM 29.5164 -83.7422 328° Northwest 164 189 5,900 -60 Level Jacksonville Center
07:53AM 29.5536 -83.7664 331° Northwest 159 183 5,800  Descending Jacksonville Center
07:54AM 29.5911 -83.7883 333° Northwest 159 183 5,900  Climbing Jacksonville Center
07:55AM 29.6286 -83.8147 329° Northwest 159 183 5,900  Level Jacksonville Center
07:56AM 29.6658 -83.8367 333° Northwest 159 183 5,900  Level Jacksonville Center
07:57AM 29.7033 -83.8658 326° Northwest 159 183 5,900  Level Jacksonville Center
07:58AM 29.7406 -83.8900 331° Northwest 159 183 5,900  Level Jacksonville Center
07:59AM 29.7761 -83.9144 329° Northwest 159 183 5,900  Level Jacksonville Center
08:00AM 29.8133 -83.9411 328° Northwest 159 183 5,900  Level Jacksonville Center
08:01AM 29.8506 -83.9703 326° Northwest 159 183 5,900  Level Jacksonville Center
08:02AM 29.8881 -83.9969 328° Northwest 159 183 5,900 -120 Level Jacksonville Center
08:03AM 29.9211 -84.0261 323° Northwest 159 183 5,700 -360 Descending Jacksonville Center
08:04AM 29.9481 -84.0694 306° West 159 183 5,200 -540 Descending Jacksonville Center
08:06AM 30.0208 -84.0984 341° North  Level FlightAware Approximate
08:13AM 30.2771 -84.2736 330° Northwest  Level FlightAware Approximate
08:14AM 30.3138 -84.2981 330° Northwest  Level FlightAware Approximate
08:15AM 30.3494 -84.3246 327° Northwest  Level FlightAware Approximate
08:16AM 30.3833 -84.3500 327° Northwest  Level FlightAware Approximate
08:17AM 30.3967 -84.3509 327° Northwest  Level Estimated
08:18AM 30.3967 -84.3509 327° Northwest  Level Estimated
08:19AM 30.3967 -84.3509 327° Northwest  Level Estimated
08:20AM 30.3967 -84.3509 327° Northwest  Level Estimated
08:21AM 30.3967 -84.3509 327° Northwest  Level Estimated
08:22AM 30.3967 -84.3509 327° Northwest  Level Estimated
08:23AM 30.3967 -84.3509 327° Northwest  Level Estimated
08:24AM 30.3967 -84.3509 327° Northwest  Level Estimated